Albany, Pennsylvania
Current Conditions -  °F | °C
As of 11:54 AM on Friday 28 Nov 2014 (Local Time) from KRDG Reporting Station
Overcast Overcast  
Wind Chill: -4°   Ceiling: 4900
Heat Index:   Visibility: 10mi
Dew Point: -8°   Wind: 13mph
Humidity: 50%   Direction: 320°NW
Pressure: 30.23"   Gusts: 21mph
Location:  40.6329°N, 75.8768°W
Report Text: KRDG 281654Z 32011G18KT 10SM OVC049 01/M08 A3023 RMK AO2 SLP245 T00111083
Loading
Personal Weather Stations






























Interactive Weather Map New forecast layout! Learn more

10-Day Weather Forecast

Advertisements
Track Severe Weather on mobile